Terminal Aerodrome Forecast
Issued by NWS Quad Cities IA IL

Home | Current Version | Previous Version | Text Only | Print | Product List | Glossary On
Versions: 1 2 3 4 5 6 7 8 9 10 11 12 13 14 15 16 17 18 19 20 21 22 23 24 25 26 27 28 29 30 31 32 33 34 35 36 37 38 39 40 41 42 43 44 45 46 47 48 49 50
000
FTUS43 KDVN 172320
TAFDBQ
TAF
KDBQ 172320Z 1800/1824 29008KT 5SM BR SCT009 OVC014
      TEMPO 1800/1803 P6SM NSW SCT014 OVC022
     FM180300 32007KT P6SM OVC025
     FM180600 32006KT P6SM SCT024 BKN090
     FM181500 02005KT P6SM BKN025
     FM182100 06012KT 2SM -SN BR OVC007=

USA.gov is the U.S. government's official web portal to all federal, state and local government web resources and services.